Aérodrome :
LOGIN :

S'inscrire | Disclaimer

   EN    FR    IT 

 










Légende :    VFR   VFR Marginal   IFR   IFR Intensif   IFR Très Intensif
Visi : 
Plafond : 
>= 8 km
>= 3000ft
5 à 8 km
1000 à 3000 ft
1500m à 5 km
500 à 1000 ft
800 à 1500m
200 à 500 ft
< 800m
< 200 ft
Symboles :   Orages  Brouillard  Fortes neiges  Fortes précipitations  Vent > 20 kt
SIGMETs :   Divers  Orages  Givrage  Turbulence  Onde Orograph.  Cendres Volcan.






- Altitude de l'aérodrome : 125 ft
- Code IATA : MGL


EDLN - Mönchengladbach

DERNIER METAR :
  • 280420Z AUTO 20003KT 150V260 9999 // NCD 10/09 Q1018 RESHRA

METARs EXPIRÉS :
  • 280350Z AUTO 22003KT 160V280 9999 // NCD 10/09 Q1018 RESHRA
  • 280320Z AUTO 23003KT 180V270 9999 // NCD 11/10 Q1018 RESHRA
  • 280250Z AUTO 24004KT 210V280 9999 // FEW063/// 11/10 Q1018 RESHRA
  • 280220Z AUTO 23004KT 190V290 9999 // FEW023/// BKN070/// 11/10 Q1018 RESHRA
  • 280150Z AUTO VRB02KT 9999 // FEW010/// SCT056/// BKN069/// 11/10 Q1018 RESHRA
  • 280120Z AUTO VRB01KT 9999 // FEW030/// BKN038/// OVC057/// 11/10 Q1018 RESHRA
  • 280050Z AUTO 22003KT 170V280 9999 // SCT040/// BKN060/// OVC076/// 11/10 Q1018 RESHRA
  • 280020Z AUTO 24004KT 200V270 9999 // FEW026/// BKN041/// OVC063/// 11/10 Q1018 RESHRA
  • 272350Z AUTO 23004KT 180V270 9999 // FEW017/// OVC058/// 12/11 Q1018 RESHRA

Prévision TAF périmée.



MET'MAP, la Météo Aéronautique d'un coup d'oeil ! - Copyright ORBIFLY Décembre 2007 - Disclaimer

ORBIFLY MET'MAP TEAM :

Programmation & Développement : Alexandra Zaïnal
Sur une idée originale de : Baudouin d'Aumeries
Soutien technique & logistique : Manuel Goepfert
Assistance : Marc-Olivier Méhu




SOURCES & CREDITS :

   NOAA